San Luis, AZ

11:58 AM MST en Noviembre 21, 2014 (GMT -0700)
YCWUA International Boundary Pumping Plant | Change Station
CLOSE
Current Station
Estación meteorológica personal
Location: San Luis, AZ
Altura: 79 ft
Estaciones meteorológicas cercanas

Alt 79 ft 32.49 °N, 114.79 °W | Updated 47 seconds ago

Parcialmente nublado
Parcialmente nublado
64.7 ° F
Sensación térmica 64.7 ° F
N
6.0
Viento Variable Viento desde ONO
Gusts 7.0 mph

Hoy
Alta -- | Baja -- ° F
--% Posibilidad de precipitaciones
Ayer
Alta -- | Baja -- ° F
Precip. -- pul
7:14 AM 5:35 PM
Creciente menguante, 1% visible
Presión 29.92 pul
Visibilidad 10.0 Millas
Nubes Baja 4300 ft
Baja 10000 ft
Nubes dispersas 11000 ft
Nubes dispersas 25000 ft
Punto de rocío 50 ° F
Humedad 59%
Precipitaciones 0.00 pul
Espesor de la nieve No disponible.
UV 3 de una escala de 12
Polen 4.40 de una escala de 12
Calidad del aire No disponible.
Flu Activity No disponible.
METAR KNYL 211757Z 31009KT 10SM FEW043 FEW100 SCT110 SCT250 20/08 A2992 RMK AO2 RAB25E37 SLP131 P0000 60000 T02000078 10206 20122 50008

More Conditions Fewer Conditions

Presión 29.92 pul
Visibilidad 10.0 Millas
Nubes Baja 4300 ft
Baja 10000 ft
Nubes dispersas 11000 ft
Nubes dispersas 25000 ft
Punto de rocío 50 ° F
Humedad 59%
Precipitaciones 0.00 pul
Espesor de la nieve No disponible.
UV 3 de una escala de 12
Polen 4.40 de una escala de 12
Calidad del aire No disponible.
Flu Activity No disponible.
METAR KNYL 211757Z 31009KT 10SM FEW043 FEW100 SCT110 SCT250 20/08 A2992 RMK AO2 RAB25E37 SLP131 P0000 60000 T02000078 10206 20122 50008

More Conditions Fewer Conditions

10-Day Weather Forecast

Almanac

Astronomía

Nov. 21, 2014 Salida Puesta
Hora real
Crepúsculo civil
Crepúsculo náutico
Crepúsculo astronómico
Luna
Horas de luz
Horas de luz
Tomorrow will be .
, % of the Moon is Illuminated

Extremos de hoy

Máximos del estado Bajos del estado

Community

WunderPhotos

Upload Photos

1,772,694 ¡fotos cargadas!

WunderBlogs® & News

Nearby

Calidad del aire

  Calidad del aire Índice AQ Contaminante
Not available.

Grosos de nieve

Estación Profundido Altura

Actividad de terremotos

Ciudad Distance Mag. Tiempo y dato
Magnitud mínima muestra es 2,5.

Temperaturas de aguas costeras

Lugar Temperatura

Estaciones meteorológicas cercanas